createdAt,value
2023-01-11T00:00:15.441Z,92.47
2023-01-11T00:03:05.514Z,92.17
2023-01-11T00:05:39.709Z,92.38
2023-01-11T00:08:09.063Z,92.43
2023-01-11T00:10:38.034Z,92.46
2023-01-11T00:13:07.291Z,92.25
2023-01-11T00:15:37.497Z,92.07
2023-01-11T00:18:07.951Z,91.78
2023-01-11T00:20:40.650Z,91.71
2023-01-11T00:23:10.015Z,91.62
2023-01-11T00:25:38.929Z,91.83
2023-01-11T00:28:07.750Z,92.03
2023-01-11T00:30:36.818Z,92.01
2023-01-11T00:33:05.652Z,92.06
2023-01-11T00:35:34.381Z,92.00
2023-01-11T00:38:03.532Z,92.19
2023-01-11T00:40:32.437Z,92.05
2023-01-11T00:43:19.588Z,92.06
2023-01-11T00:46:15.293Z,92.15
2023-01-11T00:48:44.211Z,92.30
2023-01-11T00:51:13.075Z,92.03
2023-01-11T00:53:41.764Z,92.11
2023-01-11T00:56:10.625Z,92.15
2023-01-11T00:58:39.338Z,92.44
2023-01-11T01:01:08.539Z,92.71
2023-01-11T01:03:37.181Z,93.07
2023-01-11T01:06:06.481Z,93.26
2023-01-11T01:08:35.823Z,93.10
2023-01-11T01:11:04.489Z,92.98
2023-01-11T01:13:51.840Z,93.39
2023-01-11T01:16:20.795Z,93.34
2023-01-11T01:18:51.663Z,93.05
2023-01-11T01:21:21.352Z,92.87
2023-01-11T01:23:52.090Z,93.35
2023-01-11T01:26:20.793Z,93.71
2023-01-11T01:28:49.987Z,93.59
2023-01-11T01:31:18.888Z,93.46
2023-01-11T01:33:47.743Z,93.66
2023-01-11T01:36:16.525Z,93.91
2023-01-11T01:38:45.264Z,93.86
2023-01-11T01:41:14.566Z,93.74
2023-01-11T01:43:50.361Z,93.63
2023-01-11T01:46:20.808Z,93.55
2023-01-11T01:48:56.250Z,93.67
2023-01-11T01:51:31.506Z,93.38
2023-01-11T01:54:05.875Z,93.19
2023-01-11T01:56:42.301Z,92.98
2023-01-11T01:59:15.012Z,92.80
2023-01-11T02:01:47.823Z,92.75
2023-01-11T02:04:23.023Z,93.07
2023-01-11T02:06:57.541Z,92.96
2023-01-11T02:09:32.647Z,93.02
2023-01-11T02:12:01.872Z,92.95
2023-01-11T02:14:32.046Z,92.90
2023-01-11T02:17:00.888Z,92.99
2023-01-11T02:19:48.658Z,93.03
2023-01-11T02:22:53.255Z,93.19
2023-01-11T02:25:47.939Z,92.94
2023-01-11T02:28:22.043Z,92.86
2023-01-11T02:31:00.802Z,92.93
2023-01-11T02:33:37.949Z,92.85
2023-01-11T02:36:14.153Z,92.51
2023-01-11T02:38:47.491Z,92.47
2023-01-11T02:41:25.185Z,92.41
2023-01-11T02:44:18.891Z,92.64
2023-01-11T02:46:52.716Z,92.82
2023-01-11T02:49:31.270Z,92.59
2023-01-11T02:52:06.442Z,92.54
2023-01-11T02:54:38.714Z,92.42
2023-01-11T02:57:09.144Z,92.50
2023-01-11T02:59:39.881Z,92.69
2023-01-11T03:02:09.259Z,92.92
2023-01-11T03:04:42.647Z,92.81
2023-01-11T03:07:35.821Z,92.83
2023-01-11T03:10:17.735Z,92.79
2023-01-11T03:12:59.018Z,92.84
2023-01-11T03:15:47.213Z,93.03
2023-01-11T03:18:30.712Z,93.22
2023-01-11T03:21:07.450Z,92.77
2023-01-11T03:23:46.101Z,92.60
2023-01-11T03:26:29.192Z,92.86
2023-01-11T03:29:06.184Z,92.56
2023-01-11T03:31:39.187Z,92.08
2023-01-11T03:34:15.794Z,92.47
2023-01-11T03:36:53.243Z,92.59
2023-01-11T03:39:29.111Z,92.85
2023-01-11T03:42:01.275Z,93.00
2023-01-11T03:44:31.418Z,93.06
2023-01-11T03:47:05.421Z,92.96
2023-01-11T03:49:37.510Z,92.90
2023-01-11T03:52:11.983Z,92.75
2023-01-11T03:54:42.404Z,92.71
2023-01-11T03:57:16.220Z,92.26
2023-01-11T03:59:45.741Z,92.28
2023-01-11T04:02:19.147Z,92.22
2023-01-11T04:04:48.399Z,92.43
2023-01-11T04:07:18.092Z,92.44
2023-01-11T04:09:46.868Z,92.48
2023-01-11T04:12:15.979Z,92.40
2023-01-11T04:14:44.701Z,92.29
2023-01-11T04:17:13.697Z,92.22
2023-01-11T04:19:42.428Z,92.28
2023-01-11T04:22:11.292Z,92.50
2023-01-11T04:24:39.946Z,92.14
2023-01-11T04:27:08.621Z,91.93
2023-01-11T04:29:37.122Z,92.12
2023-01-11T04:32:06.195Z,92.15
2023-01-11T04:34:34.924Z,92.38
2023-01-11T04:37:03.805Z,92.36
2023-01-11T04:39:32.557Z,92.29
2023-01-11T04:42:19.869Z,92.25
2023-01-11T04:44:50.168Z,92.40
2023-01-11T04:47:21.179Z,92.48
2023-01-11T04:49:50.578Z,92.62
2023-01-11T04:52:20.574Z,92.71
2023-01-11T04:54:51.762Z,92.79
2023-01-11T04:57:21.023Z,92.73
2023-01-11T04:59:50.136Z,92.70
2023-01-11T05:02:18.892Z,92.82
2023-01-11T05:04:47.727Z,92.78
2023-01-11T05:07:16.520Z,92.81
2023-01-11T05:09:45.608Z,92.92
2023-01-11T05:12:14.592Z,92.95
2023-01-11T05:14:43.485Z,93.02
2023-01-11T05:17:15.193Z,93.02
2023-01-11T05:19:44.016Z,92.96
2023-01-11T05:22:12.757Z,93.02
2023-01-11T05:24:43.864Z,93.04
2023-01-11T05:27:12.859Z,93.02
2023-01-11T05:29:43.704Z,92.88
2023-01-11T05:32:15.342Z,93.07
2023-01-11T05:34:46.593Z,93.04
2023-01-11T05:37:15.380Z,92.73
2023-01-11T05:39:53.621Z,92.65
2023-01-11T05:42:25.776Z,92.82
2023-01-11T05:45:25.513Z,93.20
2023-01-11T05:48:05.771Z,93.40
2023-01-11T05:50:51.263Z,93.35
2023-01-11T05:53:24.074Z,93.37
2023-01-11T05:55:57.058Z,93.56
2023-01-11T05:58:30.788Z,93.53
2023-01-11T06:01:03.431Z,93.54
2023-01-11T06:03:52.847Z,93.34
2023-01-11T06:06:22.585Z,92.95
2023-01-11T06:08:51.698Z,92.74
2023-01-11T06:11:24.220Z,92.97
2023-01-11T06:14:07.398Z,93.76
2023-01-11T06:16:49.424Z,94.39
2023-01-11T06:19:23.231Z,94.88
2023-01-11T06:22:11.816Z,95.19
2023-01-11T06:25:00.769Z,95.43
2023-01-11T06:27:38.604Z,95.58
2023-01-11T06:30:13.006Z,95.66
2023-01-11T06:32:41.880Z,95.73
2023-01-11T06:35:23.886Z,95.88
2023-01-11T06:38:07.437Z,96.03
2023-01-11T06:40:36.645Z,95.89
2023-01-11T06:43:26.700Z,95.90
2023-01-11T06:46:16.684Z,95.92
2023-01-11T06:49:01.490Z,95.94
2023-01-11T06:51:47.883Z,95.86
2023-01-11T06:54:26.775Z,95.94
2023-01-11T06:57:03.345Z,96.00
2023-01-11T06:59:43.719Z,96.00
2023-01-11T07:02:12.702Z,96.03
2023-01-11T07:04:50.947Z,96.05
2023-01-11T07:07:20.151Z,96.00
2023-01-11T07:09:59.339Z,95.95
2023-01-11T07:12:48.404Z,96.01
2023-01-11T07:15:30.673Z,96.02
2023-01-11T07:18:20.180Z,95.77
2023-01-11T07:20:52.363Z,95.66
2023-01-11T07:23:23.483Z,95.65
2023-01-11T07:25:52.506Z,95.72
2023-01-11T07:28:35.718Z,95.72
2023-01-11T07:31:07.628Z,95.61
2023-01-11T07:33:56.681Z,95.75
2023-01-11T07:36:27.376Z,95.79
2023-01-11T07:39:08.551Z,95.53
2023-01-11T07:42:26.806Z,95.59
2023-01-11T07:45:12.122Z,95.57
2023-01-11T07:48:01.390Z,95.49
2023-01-11T07:50:33.921Z,94.77
2023-01-11T07:53:06.193Z,94.23
2023-01-11T07:55:48.917Z,93.74
2023-01-11T07:58:17.700Z,93.10
2023-01-11T08:00:51.918Z,92.24
2023-01-11T08:03:20.953Z,91.14
2023-01-11T08:05:53.797Z,89.72
2023-01-11T08:08:22.799Z,88.72
2023-01-11T08:11:07.192Z,88.42
2023-01-11T08:13:58.870Z,89.04
2023-01-11T08:16:41.997Z,88.88
2023-01-11T08:19:24.573Z,89.19
2023-01-11T08:22:00.771Z,88.78
2023-01-11T08:24:40.313Z,88.96
2023-01-11T08:27:23.990Z,89.02
2023-01-11T08:30:06.082Z,88.40
2023-01-11T08:32:41.044Z,87.74
2023-01-11T08:35:32.604Z,86.94
2023-01-11T08:38:21.683Z,86.19
2023-01-11T08:40:59.364Z,85.77
2023-01-11T08:43:30.912Z,84.27
2023-01-11T08:46:05.704Z,83.24
2023-01-11T08:48:37.483Z,83.45
2023-01-11T08:51:26.774Z,82.87
2023-01-11T08:53:55.833Z,83.05
2023-01-11T08:56:45.127Z,82.54
2023-01-11T08:59:34.317Z,82.44
2023-01-11T09:02:06.868Z,81.43
2023-01-11T09:04:49.944Z,79.21
2023-01-11T09:07:30.259Z,78.36
2023-01-11T09:10:12.700Z,77.28
2023-01-11T09:13:01.740Z,77.21
2023-01-11T09:15:54.486Z,77.24
2023-01-11T09:18:36.285Z,75.80
2023-01-11T09:21:16.742Z,75.19
2023-01-11T09:24:06.999Z,74.66
2023-01-11T09:26:58.535Z,74.76
2023-01-11T09:29:38.245Z,73.53
2023-01-11T09:32:10.511Z,72.43
2023-01-11T09:35:00.580Z,70.83
2023-01-11T09:37:40.726Z,70.92
2023-01-11T09:40:17.837Z,70.42
2023-01-11T09:42:52.107Z,70.82
2023-01-11T09:45:23.420Z,71.25
2023-01-11T09:48:03.476Z,70.80
2023-01-11T09:50:40.684Z,69.79
2023-01-11T09:53:36.584Z,68.56
2023-01-11T09:56:25.139Z,68.20
2023-01-11T09:59:24.107Z,67.85
2023-01-11T10:02:24.023Z,67.74
2023-01-11T10:05:38.573Z,68.24
2023-01-11T10:18:22.844Z,65.65
2023-01-11T10:18:57.911Z,66.34
2023-01-11T10:21:32.132Z,65.69
2023-01-11T10:24:06.791Z,65.71
2023-01-11T10:26:41.652Z,64.76
2023-01-11T10:29:45.611Z,63.53
2023-01-11T10:33:02.636Z,64.12
2023-01-11T10:36:09.135Z,63.51
2023-01-11T10:39:07.383Z,63.45
2023-01-11T10:41:51.816Z,63.68
2023-01-11T10:44:37.296Z,63.36
2023-01-11T10:47:31.581Z,61.64
2023-01-11T10:50:24.101Z,62.80
2023-01-11T10:53:16.458Z,61.37
2023-01-11T10:56:18.537Z,61.03
2023-01-11T10:59:25.994Z,60.36
2023-01-11T11:02:05.652Z,60.91
2023-01-11T11:04:53.307Z,60.28
2023-01-11T11:07:51.916Z,59.77
2023-01-11T11:10:42.496Z,60.14
2023-01-11T11:13:45.449Z,61.37
2023-01-11T11:16:49.625Z,60.90
2023-01-11T11:19:39.486Z,61.46
2023-01-11T11:22:20.377Z,61.77
2023-01-11T11:24:54.496Z,61.88
2023-01-11T11:27:47.460Z,62.05
2023-01-11T11:30:32.805Z,62.77
2023-01-11T11:33:16.816Z,63.22
2023-01-11T11:35:59.389Z,63.83
2023-01-11T11:39:09.288Z,63.52
2023-01-11T11:42:08.621Z,64.79
2023-01-11T11:44:42.842Z,64.71
2023-01-11T11:47:16.171Z,64.58
2023-01-11T11:49:46.168Z,64.83
2023-01-11T11:52:18.728Z,65.32
2023-01-11T11:54:55.725Z,65.29
2023-01-11T11:57:28.450Z,65.85
2023-01-11T12:00:25.341Z,65.91
2023-01-11T12:03:02.627Z,65.80
2023-01-11T12:05:52.352Z,65.76
2023-01-11T12:08:43.350Z,65.51
2023-01-11T12:11:35.172Z,65.86
2023-01-11T12:14:18.694Z,65.45
2023-01-11T12:17:24.636Z,65.45
2023-01-11T12:20:39.337Z,66.09
2023-01-11T12:23:28.923Z,65.52
2023-01-11T12:26:21.443Z,66.18
2023-01-11T12:29:35.957Z,66.35
2023-01-11T12:32:21.056Z,66.19
2023-01-11T12:35:22.207Z,66.29
2023-01-11T12:38:29.775Z,66.45
2023-01-11T12:41:50.806Z,66.47
2023-01-11T12:44:40.947Z,66.49
2023-01-11T12:47:56.699Z,66.46
2023-01-11T12:51:05.010Z,66.65
2023-01-11T12:53:50.869Z,66.83
2023-01-11T12:56:47.746Z,66.76
2023-01-11T12:59:29.259Z,67.05
2023-01-11T13:02:19.682Z,65.91
2023-01-11T13:05:24.461Z,65.91
2023-01-11T13:08:12.605Z,66.17
2023-01-11T13:10:59.936Z,65.82
2023-01-11T13:13:56.773Z,65.93
2023-01-11T13:16:31.823Z,65.69
2023-01-11T13:19:10.539Z,65.71
2023-01-11T13:21:52.679Z,65.79
2023-01-11T13:24:33.717Z,65.64
2023-01-11T13:27:24.820Z,65.89
2023-01-11T13:29:55.865Z,66.05
2023-01-11T13:32:32.167Z,65.64
2023-01-11T13:35:06.877Z,65.15
2023-01-11T13:37:44.604Z,65.57
2023-01-11T13:40:22.446Z,65.96
2023-01-11T13:42:59.635Z,65.42
2023-01-11T13:46:03.120Z,65.64
2023-01-11T13:48:42.818Z,65.68
2023-01-11T13:51:18.994Z,65.66
2023-01-11T13:54:16.182Z,65.40
2023-01-11T13:57:00.096Z,65.14
2023-01-11T13:59:56.373Z,65.24
2023-01-11T14:02:42.123Z,65.31
2023-01-11T14:05:17.746Z,65.56
2023-01-11T14:08:14.556Z,65.83
2023-01-11T14:11:10.379Z,65.91
2023-01-11T14:14:13.782Z,66.25
2023-01-11T14:17:07.148Z,66.30
2023-01-11T14:19:46.204Z,66.28
2023-01-11T14:22:39.051Z,65.65
2023-01-11T14:25:32.433Z,65.80
2023-01-11T14:28:37.723Z,65.62
2023-01-11T14:31:36.132Z,65.52
2023-01-11T14:34:43.479Z,65.32
2023-01-11T14:38:03.967Z,65.67
2023-01-11T14:41:30.865Z,66.04
2023-01-11T14:44:22.943Z,66.04
2023-01-11T14:47:39.517Z,66.16
2023-01-11T14:50:20.780Z,66.23
2023-01-11T14:53:15.905Z,65.99
2023-01-11T14:56:26.055Z,65.78
2023-01-11T14:59:25.107Z,65.77
2023-01-11T15:02:28.355Z,65.97
2023-01-11T15:05:34.184Z,66.35
2023-01-11T15:08:37.608Z,66.39
2023-01-11T15:11:40.191Z,66.63
2023-01-11T15:14:33.756Z,66.71
2023-01-11T15:17:45.021Z,67.17
2023-01-11T15:20:50.386Z,67.19
2023-01-11T15:23:22.258Z,67.49
2023-01-11T15:26:15.008Z,67.53
2023-01-11T15:29:05.352Z,67.57
2023-01-11T15:31:38.785Z,67.75
2023-01-11T15:34:40.123Z,67.99
2023-01-11T15:37:53.498Z,68.21
2023-01-11T15:40:46.195Z,68.29
2023-01-11T15:43:48.027Z,68.16
2023-01-11T15:47:13.039Z,68.31
2023-01-11T15:50:27.896Z,68.48
2023-01-11T15:53:37.487Z,68.67
2023-01-11T15:56:46.537Z,68.52
2023-01-11T16:00:06.444Z,68.66
2023-01-11T16:03:15.369Z,68.74
2023-01-11T16:06:07.864Z,68.88
2023-01-11T16:09:06.635Z,68.90
2023-01-11T16:12:10.920Z,69.17
2023-01-11T16:15:01.754Z,69.26
2023-01-11T16:17:51.825Z,69.45
2023-01-11T16:20:32.407Z,69.65
2023-01-11T16:23:20.421Z,69.81
2023-01-11T16:26:14.172Z,70.03
2023-01-11T16:29:12.651Z,70.03
2023-01-11T16:31:55.351Z,70.05
2023-01-11T16:34:49.685Z,70.19
2023-01-11T16:37:34.746Z,70.25
2023-01-11T16:40:21.910Z,70.28
2023-01-11T16:43:19.911Z,70.41
2023-01-11T16:45:53.849Z,70.64
2023-01-11T16:48:29.226Z,70.76
2023-01-11T16:51:23.744Z,70.90
2023-01-11T16:54:02.096Z,71.12
2023-01-11T16:56:46.456Z,71.29
2023-01-11T16:59:30.093Z,71.49
2023-01-11T17:02:30.251Z,71.66
2023-01-11T17:05:00.271Z,71.81
2023-01-11T17:07:29.917Z,71.90
2023-01-11T17:10:23.076Z,71.99
2023-01-11T17:13:50.509Z,72.08
2023-01-11T17:16:37.757Z,72.31
2023-01-11T17:19:17.135Z,72.47
2023-01-11T17:22:05.073Z,72.64
2023-01-11T17:24:54.650Z,72.71
2023-01-11T17:27:50.268Z,72.75
2023-01-11T17:30:34.593Z,72.77
2023-01-11T17:33:37.188Z,72.75
2023-01-11T17:36:16.116Z,72.69
2023-01-11T17:38:45.430Z,72.68
2023-01-11T17:41:31.400Z,72.61
2023-01-11T17:44:22.189Z,72.55
2023-01-11T17:47:12.865Z,72.63
2023-01-11T17:50:03.220Z,72.61
2023-01-11T17:52:54.023Z,72.69
2023-01-11T17:55:52.212Z,72.67
2023-01-11T17:58:34.770Z,72.82
2023-01-11T18:01:20.174Z,72.86
2023-01-11T18:04:19.162Z,72.85
2023-01-11T18:07:15.303Z,72.96
2023-01-11T18:10:00.413Z,73.02
2023-01-11T18:12:51.813Z,73.12
2023-01-11T18:15:31.607Z,73.08
2023-01-11T18:18:42.323Z,73.10
2023-01-11T18:21:39.431Z,73.35
2023-01-11T18:24:42.465Z,73.44
2023-01-11T18:27:31.743Z,73.44
2023-01-11T18:30:38.724Z,73.40
2023-01-11T18:33:30.182Z,73.39
2023-01-11T18:36:22.208Z,73.33
2023-01-11T18:39:11.571Z,73.44
2023-01-11T18:42:09.652Z,73.38
2023-01-11T18:44:42.494Z,73.18
2023-01-11T18:47:16.494Z,73.01
2023-01-11T18:49:45.911Z,73.17
2023-01-11T18:52:28.807Z,73.11
2023-01-11T18:55:09.925Z,73.14
2023-01-11T18:57:48.563Z,73.06
2023-01-11T19:00:41.063Z,73.00
2023-01-11T19:06:05.439Z,73.16
2023-01-11T19:08:54.755Z,73.10
2023-01-11T19:11:44.178Z,73.05
2023-01-11T19:14:33.705Z,73.11
2023-01-11T19:17:15.143Z,73.31
2023-01-11T19:20:08.555Z,73.28
2023-01-11T19:22:57.829Z,73.47
2023-01-11T19:25:41.562Z,73.41
2023-01-11T19:28:10.380Z,73.49
2023-01-11T19:30:45.358Z,73.55
2023-01-11T19:33:24.088Z,73.55
2023-01-11T19:36:13.274Z,73.53
2023-01-11T19:38:52.563Z,73.54
2023-01-11T19:42:01.508Z,73.68
2023-01-11T19:44:38.217Z,73.71
2023-01-11T19:47:11.408Z,73.82
2023-01-11T19:49:58.318Z,73.90
2023-01-11T19:52:29.673Z,74.07
2023-01-11T19:55:11.566Z,74.19
2023-01-11T19:57:44.220Z,74.42
2023-01-11T20:00:23.682Z,74.50
2023-01-11T20:03:11.727Z,74.96
2023-01-11T20:06:07.558Z,75.34
2023-01-11T20:08:57.032Z,75.73
2023-01-11T20:11:48.748Z,76.30
2023-01-11T20:14:39.986Z,76.63
2023-01-11T20:17:29.263Z,77.07
2023-01-11T20:20:18.729Z,77.48
2023-01-11T20:23:01.220Z,77.84
2023-01-11T20:25:50.499Z,78.12
2023-01-11T20:28:39.536Z,78.50
2023-01-11T20:31:32.441Z,78.70
2023-01-11T20:34:22.104Z,78.96
2023-01-11T20:37:11.403Z,79.09
2023-01-11T20:40:00.310Z,79.10
2023-01-11T20:42:49.573Z,79.16
2023-01-11T20:45:18.549Z,79.36
2023-01-11T20:47:47.260Z,79.40
2023-01-11T20:50:17.090Z,79.63
2023-01-11T20:52:47.790Z,79.86
2023-01-11T20:55:29.863Z,80.13
2023-01-11T20:58:19.144Z,80.43
2023-01-11T21:01:09.812Z,80.73
2023-01-11T21:04:01.390Z,80.92
2023-01-11T21:06:45.563Z,81.18
2023-01-11T21:09:15.823Z,81.34
2023-01-11T21:11:55.624Z,81.60
2023-01-11T21:14:44.927Z,81.73
2023-01-11T21:17:16.463Z,82.02
2023-01-11T21:19:45.698Z,82.41
2023-01-11T21:22:17.501Z,82.78
2023-01-11T21:24:55.296Z,83.14
2023-01-11T21:27:44.213Z,83.78
2023-01-11T21:30:22.636Z,84.38
2023-01-11T21:32:57.727Z,84.95
2023-01-11T21:35:33.487Z,85.51
2023-01-11T21:38:07.582Z,85.85
2023-01-11T21:40:45.893Z,86.31
2023-01-11T21:43:16.862Z,86.74
2023-01-11T21:45:55.198Z,87.45
2023-01-11T21:48:24.086Z,88.11
2023-01-11T21:51:12.743Z,88.89
2023-01-11T21:53:45.880Z,89.60
2023-01-11T21:56:20.305Z,90.20
2023-01-11T21:58:49.930Z,90.91
2023-01-11T22:01:31.005Z,91.10
2023-01-11T22:04:21.287Z,91.50
2023-01-11T22:06:54.008Z,91.78
2023-01-11T22:09:26.650Z,92.21
2023-01-11T22:12:05.917Z,92.55
2023-01-11T22:14:43.776Z,92.90
2023-01-11T22:17:12.461Z,93.24
2023-01-11T22:19:41.355Z,93.71
2023-01-11T22:22:19.280Z,94.00
2023-01-11T22:24:57.160Z,94.02
2023-01-11T22:27:29.202Z,94.12
2023-01-11T22:30:00.709Z,94.34
2023-01-11T22:32:32.946Z,94.87
2023-01-11T22:35:01.743Z,95.13
2023-01-11T22:37:33.420Z,95.30
2023-01-11T22:40:10.072Z,95.40
2023-01-11T22:42:41.822Z,95.44
2023-01-11T22:45:12.264Z,95.65
2023-01-11T22:47:40.836Z,95.73
2023-01-11T22:50:11.259Z,95.90
2023-01-11T22:52:40.356Z,95.88
2023-01-11T22:55:10.305Z,95.99
2023-01-11T22:57:42.444Z,96.12
2023-01-11T23:00:14.435Z,96.21
2023-01-11T23:02:43.258Z,96.18
2023-01-11T23:05:12.186Z,96.22
2023-01-11T23:07:43.232Z,96.15
2023-01-11T23:10:15.779Z,96.08
2023-01-11T23:13:03.136Z,96.01
2023-01-11T23:15:31.913Z,95.99
2023-01-11T23:18:00.912Z,95.97
2023-01-11T23:20:29.626Z,96.09
2023-01-11T23:23:01.120Z,96.11
2023-01-11T23:25:30.047Z,96.25
2023-01-11T23:27:58.700Z,96.29
2023-01-11T23:30:27.923Z,96.41
2023-01-11T23:32:56.724Z,96.54
2023-01-11T23:35:25.418Z,96.61
2023-01-11T23:37:55.443Z,96.74
2023-01-11T23:40:24.272Z,96.79
2023-01-11T23:42:58.730Z,96.93
2023-01-11T23:45:27.419Z,97.13
2023-01-11T23:47:56.320Z,97.22
2023-01-11T23:50:25.327Z,97.41
2023-01-11T23:52:54.565Z,97.38
2023-01-11T23:55:26.329Z,97.44
2023-01-11T23:58:08.768Z,97.56
